METAR Formatted Surface Weather Observation
Issued by NWS

Home | Current Version | Previous Version | Text Only | Print | Product List | Glossary On
Versions: 1
000
SAUS46 KLOX 210353
MTRNZY
METAR KNZY 210352Z 26005KT 10SM BKN027 BKN033 19/13 A2996 RMK AO2
SLP144 T01890128



USA.gov is the U.S. government's official web portal to all federal, state and local government web resources and services.